createdAt,value
2023-04-23T00:02:55.479Z,76.95
2023-04-23T00:08:00.634Z,57.73
2023-04-23T00:13:04.627Z,53.32
2023-04-23T00:18:08.124Z,57.52
2023-04-23T00:23:11.137Z,59.87
2023-04-23T00:28:13.904Z,61.49
2023-04-23T00:33:16.818Z,74.89
2023-04-23T00:38:21.225Z,55.35
2023-04-23T00:43:24.188Z,53.97
2023-04-23T00:48:29.123Z,57.98
2023-04-23T00:53:33.593Z,60.90
2023-04-23T00:58:36.807Z,73.40
2023-04-23T01:03:43.048Z,56.98
2023-04-23T01:08:47.760Z,52.99
2023-04-23T01:13:50.768Z,57.11
2023-04-23T01:18:53.965Z,59.41
2023-04-23T01:23:56.744Z,72.33
2023-04-23T01:29:01.343Z,56.08
2023-04-23T01:34:04.631Z,53.01
2023-04-23T01:39:09.122Z,57.57
2023-04-23T01:44:12.298Z,59.34
2023-04-23T01:49:15.735Z,74.17
2023-04-23T01:54:18.565Z,56.28
2023-04-23T01:59:24.402Z,52.65
2023-04-23T02:04:28.226Z,57.65
2023-04-23T02:09:31.160Z,61.41
2023-04-23T02:14:34.053Z,73.25
2023-04-23T02:19:36.851Z,57.05
2023-04-23T02:24:42.254Z,52.79
2023-04-23T02:29:46.716Z,57.50
2023-04-23T02:34:49.481Z,60.23
2023-04-23T02:39:52.256Z,72.00
2023-04-23T02:44:54.996Z,57.90
2023-04-23T02:49:59.321Z,52.70
2023-04-23T02:55:05.277Z,56.86
2023-04-23T03:00:09.670Z,60.54
2023-04-23T03:05:12.806Z,73.30
2023-04-23T03:10:15.736Z,55.42
2023-04-23T03:15:18.821Z,52.90
2023-04-23T03:20:21.936Z,58.01
2023-04-23T03:25:25.902Z,60.22
2023-04-23T03:30:29.801Z,61.53
2023-04-23T03:35:32.738Z,75.73
2023-04-23T03:40:35.894Z,57.48
2023-04-23T03:45:38.661Z,53.13
2023-04-23T03:50:41.495Z,56.81
2023-04-23T03:55:44.957Z,59.36
2023-04-23T04:00:47.822Z,61.17
2023-04-23T04:05:50.665Z,73.43
2023-04-23T04:10:53.659Z,55.52
2023-04-23T04:15:56.603Z,52.48
2023-04-23T04:20:59.793Z,55.72
2023-04-23T04:26:02.801Z,57.68
2023-04-23T04:31:06.911Z,58.86
2023-04-23T04:36:09.889Z,59.86
2023-04-23T04:41:13.288Z,60.11
2023-04-23T04:46:16.277Z,61.02
2023-04-23T04:51:20.375Z,71.90
2023-04-23T04:56:24.166Z,50.74
2023-04-23T05:01:29.074Z,53.29
2023-04-23T05:06:32.471Z,51.49
2023-04-23T05:11:36.044Z,50.86
2023-04-23T05:16:38.918Z,47.79
2023-04-23T05:21:42.683Z,47.67
2023-04-23T05:26:45.587Z,44.44
2023-04-23T05:31:51.853Z,42.03
2023-04-23T05:36:54.756Z,39.81
2023-04-23T05:41:58.155Z,36.27
2023-04-23T05:47:01.072Z,36.21
2023-04-23T05:52:04.036Z,33.19
2023-04-23T05:57:07.114Z,32.73
2023-04-23T06:02:11.241Z,33.00
2023-04-23T06:07:15.319Z,29.85
2023-04-23T06:12:18.493Z,28.47
2023-04-23T06:17:21.393Z,26.31
2023-04-23T06:22:24.266Z,25.75
2023-04-23T06:27:27.298Z,24.21
2023-04-23T06:32:30.137Z,23.55
2023-04-23T06:37:32.990Z,23.81
2023-04-23T06:42:35.958Z,23.66
2023-04-23T06:47:38.763Z,23.96
2023-04-23T06:52:41.963Z,22.72
2023-04-23T06:57:44.917Z,22.02
2023-04-23T07:02:47.924Z,22.55
2023-04-23T07:07:50.978Z,22.93
2023-04-23T07:12:53.745Z,22.78
2023-04-23T07:17:56.804Z,22.18
2023-04-23T07:22:59.904Z,22.72
2023-04-23T07:28:02.835Z,20.95
2023-04-23T07:33:06.162Z,21.17
2023-04-23T07:38:09.139Z,21.01
2023-04-23T07:43:12.484Z,20.26
2023-04-23T07:48:15.363Z,19.07
2023-04-23T07:53:18.334Z,19.23
2023-04-23T07:58:21.343Z,19.80
2023-04-23T08:03:24.650Z,20.20
2023-04-23T08:08:27.701Z,19.52
2023-04-23T08:13:30.641Z,19.68
2023-04-23T08:18:33.523Z,19.62
2023-04-23T08:23:36.323Z,19.09
2023-04-23T08:28:39.131Z,19.00
2023-04-23T08:33:42.044Z,19.31
2023-04-23T08:38:44.883Z,18.96
2023-04-23T08:44:14.675Z,19.20
2023-04-23T08:49:18.907Z,19.23
2023-04-23T08:54:28.066Z,19.48
2023-04-23T08:59:32.114Z,18.88
2023-04-23T09:04:36.470Z,18.89
2023-04-23T09:09:41.059Z,18.62
2023-04-23T09:14:45.143Z,18.50
2023-04-23T09:19:51.100Z,18.53
2023-04-23T09:24:54.584Z,18.92
2023-04-23T09:29:59.597Z,19.54
2023-04-23T09:35:07.911Z,18.74
2023-04-23T09:40:18.559Z,18.72
2023-04-23T09:45:22.141Z,18.40
2023-04-23T09:50:40.009Z,18.59
2023-04-23T09:55:45.014Z,19.05
2023-04-23T10:00:48.655Z,18.27
2023-04-23T10:06:01.958Z,17.71
2023-04-23T10:11:19.839Z,17.79
2023-04-23T10:16:26.886Z,17.99
2023-04-23T10:21:46.279Z,18.51
2023-04-23T10:26:59.812Z,18.21
2023-04-23T10:32:07.206Z,18.73
2023-04-23T10:37:12.037Z,18.74
2023-04-23T10:42:16.908Z,18.51
2023-04-23T10:47:22.603Z,18.14
2023-04-23T10:52:26.281Z,18.76
2023-04-23T10:57:29.277Z,18.29
2023-04-23T11:02:44.985Z,18.08
2023-04-23T11:08:18.953Z,18.20
2023-04-23T11:13:28.194Z,18.77
2023-04-23T11:18:30.982Z,18.62
2023-04-23T11:23:34.034Z,18.44
2023-04-23T11:28:39.745Z,18.35
2023-04-23T11:33:42.791Z,18.53
2023-04-23T11:38:46.218Z,18.42
2023-04-23T11:43:49.039Z,18.12
2023-04-23T11:48:52.077Z,18.07
2023-04-23T11:53:55.048Z,18.68
2023-04-23T11:59:05.363Z,18.93
2023-04-23T12:04:13.568Z,18.95
2023-04-23T12:09:21.193Z,19.03
2023-04-23T12:14:30.640Z,18.91
2023-04-23T12:19:33.673Z,19.39
2023-04-23T12:24:54.523Z,19.67
2023-04-23T12:30:02.234Z,19.19
2023-04-23T12:35:07.256Z,19.89
2023-04-23T12:40:11.096Z,20.08
2023-04-23T12:45:13.920Z,19.78
2023-04-23T12:50:16.986Z,19.73
2023-04-23T12:55:19.900Z,20.48
2023-04-23T13:00:23.426Z,21.55
2023-04-23T13:05:26.205Z,22.21
2023-04-23T13:10:31.022Z,23.67
2023-04-23T13:15:34.060Z,24.23
2023-04-23T13:20:36.888Z,24.88
2023-04-23T13:25:39.724Z,25.26
2023-04-23T13:30:42.506Z,25.19
2023-04-23T13:35:45.311Z,25.40
2023-04-23T13:40:48.232Z,26.00
2023-04-23T13:45:54.239Z,25.72
2023-04-23T13:51:01.776Z,25.87
2023-04-23T13:56:04.956Z,26.42
2023-04-23T14:01:07.840Z,26.58
2023-04-23T14:06:11.123Z,27.11
2023-04-23T14:11:13.933Z,28.04
2023-04-23T14:16:17.608Z,28.31
2023-04-23T14:21:20.555Z,28.33
2023-04-23T14:26:49.439Z,28.96
2023-04-23T14:31:52.993Z,28.41
2023-04-23T14:36:55.955Z,28.52
2023-04-23T14:41:58.851Z,28.52
2023-04-23T14:47:02.344Z,28.69
2023-04-23T14:52:05.228Z,28.71
2023-04-23T14:57:08.152Z,28.98
2023-04-23T15:02:12.280Z,29.05
2023-04-23T15:07:15.367Z,29.53
2023-04-23T15:12:37.956Z,30.00
2023-04-23T15:17:41.528Z,29.83
2023-04-23T15:22:47.896Z,29.88
2023-04-23T15:27:57.679Z,30.07
2023-04-23T15:33:00.641Z,30.16
2023-04-23T15:38:03.835Z,30.64
2023-04-23T15:43:06.759Z,30.78
2023-04-23T15:48:10.096Z,30.92
2023-04-23T15:53:13.069Z,31.00
2023-04-23T15:58:15.931Z,31.12
2023-04-23T16:03:18.973Z,31.58
2023-04-23T16:08:22.165Z,31.78
2023-04-23T16:13:26.760Z,32.04
2023-04-23T16:18:29.650Z,32.47
2023-04-23T16:23:32.463Z,32.87
2023-04-23T16:28:35.628Z,32.93
2023-04-23T16:33:38.604Z,33.11
2023-04-23T16:38:44.945Z,33.43
2023-04-23T16:43:47.790Z,33.74
2023-04-23T16:48:50.620Z,33.90
2023-04-23T16:53:53.406Z,34.21
2023-04-23T16:58:56.527Z,34.66
2023-04-23T17:03:59.527Z,35.01
2023-04-23T17:09:05.333Z,35.40
2023-04-23T17:14:08.191Z,35.34
2023-04-23T17:19:11.665Z,35.78
2023-04-23T17:24:14.559Z,36.24
2023-04-23T17:29:17.420Z,36.49
2023-04-23T17:34:20.205Z,36.88
2023-04-23T17:39:23.808Z,37.66
2023-04-23T17:44:26.746Z,38.16
2023-04-23T17:49:29.614Z,38.45
2023-04-23T17:54:32.546Z,39.10
2023-04-23T17:59:35.795Z,39.28
2023-04-23T18:04:38.651Z,40.34
2023-04-23T18:09:41.429Z,41.50
2023-04-23T18:14:44.318Z,41.23
2023-04-23T18:19:48.967Z,42.06
2023-04-23T18:24:51.792Z,43.24
2023-04-23T18:29:57.626Z,43.20
2023-04-23T18:35:01.996Z,43.73
2023-04-23T18:40:06.908Z,43.20
2023-04-23T18:45:10.793Z,43.61
2023-04-23T18:50:50.099Z,43.42
2023-04-23T18:55:52.902Z,43.61
2023-04-23T19:00:56.527Z,43.40
2023-04-23T19:05:59.645Z,43.86
2023-04-23T19:11:03.790Z,44.60
2023-04-23T19:16:08.942Z,45.81
2023-04-23T19:21:12.206Z,45.54
2023-04-23T19:26:15.017Z,45.86
2023-04-23T19:31:17.977Z,46.31
2023-04-23T19:36:20.959Z,47.55
2023-04-23T19:41:23.783Z,47.85
2023-04-23T19:46:26.685Z,48.11
2023-04-23T19:51:35.501Z,48.40
2023-04-23T19:56:38.331Z,49.41
2023-04-23T20:01:45.560Z,50.02
2023-04-23T20:06:48.412Z,51.19
2023-04-23T20:11:52.829Z,51.45
2023-04-23T20:16:56.802Z,51.58
2023-04-23T20:21:59.610Z,52.37
2023-04-23T20:27:02.489Z,52.81
2023-04-23T20:32:05.729Z,53.08
2023-04-23T20:37:08.814Z,52.27
2023-04-23T20:42:12.075Z,51.79
2023-04-23T20:47:18.720Z,54.39
2023-04-23T20:52:21.653Z,53.43
2023-04-23T20:57:24.498Z,54.33
2023-04-23T21:02:27.500Z,55.39
2023-04-23T21:07:31.131Z,56.88
2023-04-23T21:12:34.041Z,57.31
2023-04-23T21:17:36.904Z,56.80
2023-04-23T21:22:39.802Z,57.13
2023-04-23T21:27:46.016Z,56.64
2023-04-23T21:32:52.218Z,56.78
2023-04-23T21:37:55.382Z,58.52
2023-04-23T21:42:58.211Z,58.40
2023-04-23T21:48:02.002Z,58.12
2023-04-23T21:53:06.959Z,56.28
2023-04-23T22:03:20.533Z,58.08
2023-04-23T22:08:40.484Z,58.45
2023-04-23T22:13:43.406Z,58.86
2023-04-23T22:18:46.175Z,58.09
2023-04-23T22:23:49.055Z,57.45
2023-04-23T22:28:52.306Z,70.94
2023-04-23T22:33:55.305Z,57.09
2023-04-23T22:38:58.503Z,52.00
2023-04-23T22:44:01.270Z,53.27
2023-04-23T22:49:07.754Z,54.11
2023-04-23T22:54:10.662Z,55.96
2023-04-23T22:59:13.699Z,58.02
2023-04-23T23:04:16.580Z,58.98
2023-04-23T23:09:19.466Z,60.46
2023-04-23T23:14:23.213Z,72.06
2023-04-23T23:19:28.282Z,52.99
2023-04-23T23:24:31.092Z,52.71
2023-04-23T23:29:34.216Z,54.72
2023-04-23T23:34:37.010Z,56.36
2023-04-23T23:39:40.000Z,56.68
2023-04-23T23:44:42.951Z,57.36
2023-04-23T23:49:45.883Z,58.88
2023-04-23T23:54:48.791Z,59.75
2023-04-23T23:59:51.567Z,60.40
